Wetterdaten: Woche 04.07.05 - 10.07.05 (KW27)
Datum Zeit Temperatur Luftfeuchte Luftdruck Niederschlag Windrichtung Wind
04.07.2005 00:00 17,2 C 79 % 1016 hPa 0,0 l/m W-NW 2,3 km/h (1 Bft)
04.07.2005 01:00 16,3 C 83 % 1016 hPa 0,0 l/m W-NW 2,6 km/h (1 Bft)
04.07.2005 02:00 15,6 C 85 % 1015 hPa 0,0 l/m W 2,1 km/h (1 Bft)
04.07.2005 03:00 14,9 C 87 % 1014 hPa 0,0 l/m NW 0,9 km/h (0 Bft)
04.07.2005 04:00 14,4 C 90 % 1014 hPa 0,0 l/m W-NW 1,6 km/h (1 Bft)
04.07.2005 05:00 13,9 C 93 % 1013 hPa 0,0 l/m N 0,0 km/h (0 Bft)
04.07.2005 06:00 13,9 C 94 % 1013 hPa 0,0 l/m N 0,0 km/h (0 Bft)
04.07.2005 07:00 15,1 C 90 % 1013 hPa 0,0 l/m O-NO 0,3 km/h (0 Bft)
04.07.2005 08:00 17,1 C 80 % 1012 hPa 0,0 l/m N 0,0 km/h (0 Bft)
04.07.2005 09:00 20,2 C 70 % 1012 hPa 0,0 l/m O-SO 3,4 km/h (1 Bft)
04.07.2005 10:00 23,7 C 59 % 1011 hPa 0,0 l/m O-SO 7,1 km/h (2 Bft)
04.07.2005 11:00 26,1 C 51 % 1011 hPa 0,0 l/m O 9,2 km/h (2 Bft)
04.07.2005 12:00 27,5 C 48 % 1010 hPa 0,0 l/m S-SW 11,9 km/h (2 Bft)
04.07.2005 13:00 28,0 C 43 % 1010 hPa 0,0 l/m S-SW 12,6 km/h (3 Bft)
04.07.2005 14:00 28,0 C 42 % 1009 hPa 0,0 l/m W-SW 11,3 km/h (2 Bft)
04.07.2005 15:00 22,7 C 62 % 1011 hPa 2,0 l/m W-SW 19,7 km/h (3 Bft)
04.07.2005 16:00 18,1 C 90 % 1012 hPa 2,0 l/m S-SW 11,6 km/h (2 Bft)
04.07.2005 17:00 17,8 C 98 % 1013 hPa 1,0 l/m S 16,0 km/h (3 Bft)
04.07.2005 18:00 17,9 C 99 % 1012 hPa 0,0 l/m S-SW 12,9 km/h (3 Bft)
04.07.2005 19:00 18,1 C 97 % 1011 hPa 2,0 l/m SW 9,8 km/h (2 Bft)
04.07.2005 20:00 17,1 C 94 % 1013 hPa 0,0 l/m W-NW 15,5 km/h (3 Bft)
04.07.2005 21:00 14,8 C 94 % 1014 hPa 2,0 l/m W-NW 12,3 km/h (3 Bft)
04.07.2005 22:00 13,8 C 92 % 1015 hPa 0,0 l/m W 9,4 km/h (2 Bft)
04.07.2005 23:00 12,9 C 91 % 1015 hPa 0,0 l/m NW 3,2 km/h (1 Bft)
05.07.2005 00:00 12,5 C 94 % 1016 hPa 1,0 l/m W-SW 2,7 km/h (1 Bft)
05.07.2005 01:00 12,3 C 97 % 1016 hPa 1,0 l/m S 4,5 km/h (1 Bft)
05.07.2005 02:00 11,9 C 97 % 1016 hPa 1,0 l/m S 1,8 km/h (1 Bft)
05.07.2005 03:00 11,7 C 99 % 1016 hPa 0,0 l/m S 8,3 km/h (2 Bft)
05.07.2005 04:00 11,5 C 99 % 1015 hPa 0,0 l/m S 11,2 km/h (2 Bft)
05.07.2005 05:00 11,2 C 99 % 1015 hPa 0,0 l/m S 9,3 km/h (2 Bft)
05.07.2005 06:00 10,9 C 99 % 1015 hPa 0,0 l/m S-SW 1,0 km/h (0 Bft)
05.07.2005 07:00 11,1 C 99 % 1015 hPa 0,0 l/m S 6,7 km/h (2 Bft)
05.07.2005 08:00 11,1 C 97 % 1016 hPa 2,0 l/m S-SO 0,8 km/h (0 Bft)
05.07.2005 09:00 12,2 C 98 % 1016 hPa 0,0 l/m S-SW 0,4 km/h (0 Bft)
05.07.2005 10:00 13,8 C 90 % 1015 hPa 0,0 l/m S-SW 2,1 km/h (1 Bft)
05.07.2005 11:00 13,9 C 76 % 1016 hPa 1,0 l/m W 10,3 km/h (2 Bft)
05.07.2005 12:00 11,1 C 90 % 1017 hPa 2,0 l/m N-NW 5,5 km/h (1 Bft)
05.07.2005 13:00 12,9 C 85 % 1017 hPa 0,0 l/m NW 11,7 km/h (2 Bft)
05.07.2005 14:00 15,4 C 65 % 1017 hPa 0,0 l/m W 10,3 km/h (2 Bft)
05.07.2005 15:00 16,6 C 56 % 1016 hPa 0,0 l/m N-NW 6,9 km/h (2 Bft)
05.07.2005 16:00 15,0 C 68 % 1016 hPa 0,0 l/m S-SW 21,5 km/h (4 Bft)
05.07.2005 17:00 15,5 C 63 % 1016 hPa 0,0 l/m S-SW 22,7 km/h (4 Bft)
05.07.2005 18:00 15,0 C 67 % 1016 hPa 0,0 l/m S-SW 15,0 km/h (3 Bft)
05.07.2005 19:00 15,5 C 64 % 1017 hPa 0,0 l/m S 13,5 km/h (3 Bft)
05.07.2005 20:00 13,9 C 73 % 1017 hPa 0,0 l/m S-SW 7,4 km/h (2 Bft)
05.07.2005 21:00 13,0 C 77 % 1017 hPa 0,0 l/m S 3,0 km/h (1 Bft)
05.07.2005 22:00 12,5 C 79 % 1017 hPa 0,0 l/m S 0,4 km/h (0 Bft)
05.07.2005 23:00 11,4 C 83 % 1017 hPa 0,0 l/m SO 1,9 km/h (1 Bft)
06.07.2005 00:00 10,2 C 87 % 1017 hPa 0,0 l/m N 0,0 km/h (0 Bft)
06.07.2005 01:00 9,3 C 90 % 1017 hPa 0,0 l/m N 0,0 km/h (0 Bft)
06.07.2005 02:00 8,5 C 93 % 1016 hPa 0,0 l/m N 0,0 km/h (0 Bft)
06.07.2005 03:00 7,8 C 95 % 1016 hPa 0,0 l/m N 0,0 km/h (0 Bft)
06.07.2005 04:00 7,2 C 96 % 1016 hPa 0,0 l/m N 0,0 km/h (0 Bft)
06.07.2005 05:00 6,9 C 97 % 1015 hPa 0,0 l/m N 0,0 km/h (0 Bft)
06.07.2005 06:00 7,2 C 99 % 1015 hPa 0,0 l/m S 1,7 km/h (1 Bft)
06.07.2005 07:00 9,3 C 100 % 1014 hPa 0,0 l/m S-SO 8,9 km/h (2 Bft)
06.07.2005 08:00 11,4 C 90 % 1014 hPa 0,0 l/m S 11,1 km/h (2 Bft)
06.07.2005 09:00 14,1 C 71 % 1014 hPa 0,0 l/m S 13,4 km/h (3 Bft)
06.07.2005 10:00 15,8 C 63 % 1013 hPa 0,0 l/m S 13,1 km/h (3 Bft)
06.07.2005 11:00 16,0 C 64 % 1013 hPa 0,0 l/m SW 10,5 km/h (2 Bft)
06.07.2005 12:00 15,1 C 69 % 1013 hPa 0,0 l/m W-SW 12,8 km/h (3 Bft)
06.07.2005 13:00 17,1 C 67 % 1012 hPa 0,0 l/m S-SW 17,3 km/h (3 Bft)
06.07.2005 14:00 17,8 C 66 % 1012 hPa 0,0 l/m S-SW 16,5 km/h (3 Bft)
06.07.2005 15:00 16,7 C 72 % 1012 hPa 1,0 l/m S-SW 8,4 km/h (2 Bft)
06.07.2005 16:00 15,2 C 83 % 1012 hPa 0,0 l/m SW 11,1 km/h (2 Bft)
06.07.2005 17:00 14,7 C 90 % 1012 hPa 1,0 l/m S-SW 11,2 km/h (2 Bft)
06.07.2005 18:00 15,2 C 90 % 1012 hPa 0,0 l/m S-SW 12,5 km/h (3 Bft)
06.07.2005 19:00 15,0 C 89 % 1012 hPa 0,0 l/m W-SW 11,2 km/h (2 Bft)
06.07.2005 20:00 14,6 C 89 % 1013 hPa 0,0 l/m W-SW 12,1 km/h (2 Bft)
06.07.2005 21:00 14,1 C 91 % 1013 hPa 0,0 l/m S-SW 7,1 km/h (2 Bft)
06.07.2005 22:00 13,5 C 96 % 1013 hPa 0,0 l/m S-SW 7,5 km/h (2 Bft)
06.07.2005 23:00 13,3 C 99 % 1014 hPa 0,0 l/m S-SW 10,7 km/h (2 Bft)
07.07.2005 00:00 13,0 C 98 % 1014 hPa 0,0 l/m S-SW 10,8 km/h (2 Bft)
07.07.2005 01:00 12,7 C 95 % 1014 hPa 0,0 l/m S-SW 11,8 km/h (2 Bft)
07.07.2005 02:00 12,2 C 98 % 1014 hPa 0,0 l/m S-SW 14,6 km/h (3 Bft)
07.07.2005 03:00 12,1 C 100 % 1014 hPa 0,0 l/m S-SW 15,5 km/h (3 Bft)
07.07.2005 04:00 11,9 C 99 % 1013 hPa 0,0 l/m S-SW 11,1 km/h (2 Bft)
07.07.2005 05:00 11,8 C 98 % 1013 hPa 0,0 l/m S-SW 9,9 km/h (2 Bft)
07.07.2005 06:00 11,9 C 98 % 1012 hPa 0,0 l/m S 10,9 km/h (2 Bft)
07.07.2005 07:00 12,3 C 99 % 1012 hPa 1,0 l/m S-SW 12,4 km/h (3 Bft)
07.07.2005 08:00 12,3 C 94 % 1013 hPa 0,0 l/m W-SW 8,4 km/h (2 Bft)
07.07.2005 09:00 12,3 C 92 % 1014 hPa 0,0 l/m S 9,7 km/h (2 Bft)
07.07.2005 10:00 12,8 C 91 % 1014 hPa 0,0 l/m W-SW 7,7 km/h (2 Bft)
07.07.2005 11:00 12,8 C 87 % 1014 hPa 0,0 l/m W-SW 8,5 km/h (2 Bft)
07.07.2005 12:00 13,2 C 82 % 1014 hPa 1,0 l/m S-SW 12,2 km/h (3 Bft)
07.07.2005 13:00 12,9 C 83 % 1014 hPa 0,0 l/m SW 8,1 km/h (2 Bft)
07.07.2005 14:00 13,4 C 77 % 1014 hPa 0,0 l/m W-SW 12,6 km/h (3 Bft)
07.07.2005 15:00 13,7 C 74 % 1014 hPa 0,0 l/m W-SW 11,3 km/h (2 Bft)
07.07.2005 16:00 12,8 C 81 % 1014 hPa 0,0 l/m W-SW 5,4 km/h (1 Bft)
07.07.2005 17:00 12,1 C 88 % 1015 hPa 1,0 l/m W-SW 3,4 km/h (1 Bft)
07.07.2005 18:00 13,8 C 79 % 1015 hPa 0,0 l/m S-SW 13,7 km/h (3 Bft)
07.07.2005 19:00 13,5 C 69 % 1015 hPa 0,0 l/m SW 14,9 km/h (3 Bft)
07.07.2005 20:00 12,2 C 81 % 1015 hPa 0,0 l/m S-SW 11,0 km/h (2 Bft)
07.07.2005 21:00 11,1 C 91 % 1016 hPa 0,0 l/m S-SW 11,1 km/h (2 Bft)
07.07.2005 22:00 10,4 C 94 % 1016 hPa 0,0 l/m S-SW 9,8 km/h (2 Bft)
07.07.2005 23:00 10,3 C 96 % 1016 hPa 0,0 l/m S-SW 9,1 km/h (2 Bft)
08.07.2005 00:00 10,7 C 96 % 1016 hPa 0,0 l/m S-SW 9,9 km/h (2 Bft)
08.07.2005 01:00 10,8 C 92 % 1016 hPa 0,0 l/m S-SW 9,4 km/h (2 Bft)
08.07.2005 02:00 10,7 C 93 % 1015 hPa 0,0 l/m S-SW 9,6 km/h (2 Bft)
08.07.2005 03:00 10,4 C 98 % 1015 hPa 0,0 l/m S 5,6 km/h (1 Bft)
08.07.2005 04:00 10,2 C 99 % 1015 hPa 0,0 l/m S 1,0 km/h (0 Bft)
08.07.2005 05:00 9,9 C 100 % 1015 hPa 0,0 l/m N 0,0 km/h (0 Bft)
08.07.2005 06:00 10,0 C 100 % 1015 hPa 0,0 l/m O 1,5 km/h (1 Bft)
08.07.2005 07:00 10,6 C 100 % 1015 hPa 0,0 l/m S 6,2 km/h (2 Bft)
08.07.2005 08:00 11,5 C 98 % 1015 hPa 0,0 l/m S 14,0 km/h (3 Bft)
08.07.2005 09:00 11,6 C 92 % 1015 hPa 0,0 l/m S-SW 14,3 km/h (3 Bft)
08.07.2005 10:00 12,2 C 90 % 1015 hPa 0,0 l/m S 15,2 km/h (3 Bft)
08.07.2005 11:00 13,2 C 83 % 1015 hPa 0,0 l/m S-SW 12,3 km/h (3 Bft)
08.07.2005 12:00 14,5 C 71 % 1015 hPa 0,0 l/m S-SW 15,8 km/h (3 Bft)
08.07.2005 13:00 14,2 C 76 % 1015 hPa 0,0 l/m SW 12,6 km/h (3 Bft)
08.07.2005 14:00 15,1 C 73 % 1015 hPa 0,0 l/m W-SW 12,9 km/h (3 Bft)
08.07.2005 15:00 14,4 C 76 % 1016 hPa 3,0 l/m W 10,8 km/h (2 Bft)
08.07.2005 16:00 14,6 C 75 % 1016 hPa 0,0 l/m W-SW 5,8 km/h (2 Bft)
08.07.2005 17:00 16,3 C 68 % 1016 hPa 0,0 l/m O 2,3 km/h (1 Bft)
08.07.2005 18:00 16,0 C 68 % 1016 hPa 0,0 l/m W-SW 7,1 km/h (2 Bft)
08.07.2005 19:00 14,3 C 76 % 1016 hPa 0,0 l/m NW 6,6 km/h (2 Bft)
08.07.2005 20:00 13,7 C 82 % 1017 hPa 0,0 l/m NW 0,5 km/h (0 Bft)
08.07.2005 21:00 12,6 C 86 % 1017 hPa 0,0 l/m S-SW 0,6 km/h (0 Bft)
08.07.2005 22:00 11,3 C 90 % 1018 hPa 0,0 l/m N 0,0 km/h (0 Bft)
08.07.2005 23:00 10,2 C 92 % 1018 hPa 0,0 l/m N 0,0 km/h (0 Bft)
09.07.2005 00:00 9,4 C 94 % 1018 hPa 0,0 l/m N 0,0 km/h (0 Bft)
09.07.2005 01:00 8,9 C 96 % 1018 hPa 0,0 l/m N 0,0 km/h (0 Bft)
09.07.2005 02:00 8,5 C 97 % 1018 hPa 0,0 l/m N 0,0 km/h (0 Bft)
09.07.2005 03:00 8,0 C 98 % 1018 hPa 0,0 l/m N 0,0 km/h (0 Bft)
09.07.2005 04:00 7,7 C 99 % 1018 hPa 0,0 l/m N 0,0 km/h (0 Bft)
09.07.2005 05:00 7,5 C 100 % 1018 hPa 0,0 l/m N 0,0 km/h (0 Bft)
09.07.2005 06:00 7,0 C 100 % 1018 hPa 0,0 l/m W-NW 1,4 km/h (1 Bft)
09.07.2005 07:00 7,6 C 100 % 1019 hPa 0,0 l/m N-NW 3,5 km/h (1 Bft)
09.07.2005 08:00 9,6 C 100 % 1019 hPa 0,0 l/m NW 3,2 km/h (1 Bft)
09.07.2005 09:00 12,8 C 99 % 1019 hPa 0,0 l/m N 5,7 km/h (1 Bft)
09.07.2005 10:00 16,5 C 68 % 1018 hPa 0,0 l/m N 10,2 km/h (2 Bft)
09.07.2005 11:00 17,9 C 58 % 1018 hPa 0,0 l/m N-NO 9,5 km/h (2 Bft)
09.07.2005 12:00 19,4 C 52 % 1018 hPa 0,0 l/m N-NO 10,5 km/h (2 Bft)
09.07.2005 13:00 19,8 C 50 % 1018 hPa 0,0 l/m N 10,3 km/h (2 Bft)
09.07.2005 14:00 20,1 C 49 % 1018 hPa 0,0 l/m NO 12,1 km/h (2 Bft)
09.07.2005 15:00 21,2 C 46 % 1018 hPa 0,0 l/m N-NO 14,2 km/h (3 Bft)
09.07.2005 16:00 21,7 C 44 % 1018 hPa 0,0 l/m NO 18,4 km/h (3 Bft)
09.07.2005 17:00 20,8 C 48 % 1018 hPa 0,0 l/m N-NO 15,3 km/h (3 Bft)
09.07.2005 18:00 21,6 C 45 % 1018 hPa 0,0 l/m O-NO 16,5 km/h (3 Bft)
09.07.2005 19:00 20,9 C 45 % 1018 hPa 0,0 l/m NO 15,7 km/h (3 Bft)
09.07.2005 20:00 19,4 C 50 % 1018 hPa 0,0 l/m N 7,4 km/h (2 Bft)
09.07.2005 21:00 17,1 C 61 % 1019 hPa 0,0 l/m NW 4,6 km/h (1 Bft)
09.07.2005 22:00 14,9 C 70 % 1019 hPa 0,0 l/m NW 8,5 km/h (2 Bft)
09.07.2005 23:00 13,9 C 74 % 1019 hPa 0,0 l/m NW 9,6 km/h (2 Bft)
10.07.2005 00:00 12,9 C 79 % 1019 hPa 0,0 l/m W-NW 1,3 km/h (1 Bft)
10.07.2005 01:00 12,4 C 83 % 1019 hPa 0,0 l/m NW 7,7 km/h (2 Bft)
10.07.2005 02:00 11,9 C 85 % 1019 hPa 0,0 l/m W-NW 4,1 km/h (1 Bft)
10.07.2005 03:00 11,5 C 87 % 1019 hPa 0,0 l/m NW 6,7 km/h (2 Bft)
10.07.2005 04:00 11,3 C 87 % 1019 hPa 0,0 l/m NW 6,8 km/h (2 Bft)
10.07.2005 05:00 11,1 C 89 % 1019 hPa 0,0 l/m NW 7,8 km/h (2 Bft)
10.07.2005 06:00 11,5 C 90 % 1020 hPa 0,0 l/m NW 4,1 km/h (1 Bft)
10.07.2005 07:00 12,1 C 90 % 1020 hPa 0,0 l/m N-NW 5,6 km/h (1 Bft)
10.07.2005 08:00 13,9 C 87 % 1020 hPa 0,0 l/m N 7,6 km/h (2 Bft)
10.07.2005 09:00 16,1 C 79 % 1020 hPa 0,0 l/m N 9,9 km/h (2 Bft)
10.07.2005 10:00 17,9 C 69 % 1020 hPa 0,0 l/m N-NO 12,6 km/h (3 Bft)
10.07.2005 11:00 17,6 C 73 % 1021 hPa 0,0 l/m N-NO 11,5 km/h (2 Bft)
10.07.2005 12:00 16,7 C 82 % 1021 hPa 2,0 l/m N 6,6 km/h (2 Bft)
10.07.2005 13:00 15,7 C 92 % 1021 hPa 1,0 l/m N 8,7 km/h (2 Bft)
10.07.2005 14:00 15,8 C 94 % 1021 hPa 0,0 l/m N-NW 13,3 km/h (3 Bft)
10.07.2005 15:00 16,6 C 90 % 1021 hPa 0,0 l/m N 12,0 km/h (2 Bft)
10.07.2005 16:00 17,3 C 87 % 1021 hPa 1,0 l/m N-NW 8,4 km/h (2 Bft)
10.07.2005 17:00 17,0 C 90 % 1021 hPa 4,0 l/m N 6,9 km/h (2 Bft)
10.07.2005 18:00 14,7 C 90 % 1021 hPa 1,0 l/m NW 3,2 km/h (1 Bft)
10.07.2005 19:00 14,5 C 95 % 1021 hPa 0,0 l/m N 0,0 km/h (0 Bft)
10.07.2005 20:00 14,3 C 96 % 1021 hPa 0,0 l/m N 0,0 km/h (0 Bft)
10.07.2005 21:00 13,9 C 98 % 1022 hPa 6,0 l/m O-NO 6,4 km/h (2 Bft)
10.07.2005 22:00 13,7 C 100 % 1023 hPa 1,0 l/m W 2,6 km/h (1 Bft)
10.07.2005 23:00 13,4 C 100 % 1023 hPa 0,0 l/m NW 4,8 km/h (1 Bft)
Min-Datum _ 06.07.05 04.07.05 04.07.05 - - 04.07.05
_ Min-Zeit 05:47 14:09 13:45 - - 00:00
Minimum _ 6,7 C 38 % 1009 hPa - - 0,0 km/h (0 Bft)
Max-Datum _ 04.07.05 04.07.05 10.07.05 10.07.05 - 04.07.05
_ Max-Zeit 14:06 18:07 21:30 21:28 - 15:25
Maximum _ 28,8 C 100 % 1023 hPa 6,0 l/m - 45,4 km/h
W-SW (6 Bft)
Durchschnitt _ 14,0 C 84 % 1016 hPa #41,0 l/m S-SW 7,8 km/h (2 Bft)

Durchschnitt Minimum Temp.13,5 C
Durchschnitt Maximum Temp.14,5 C